sensor_id;sensor_type;location;lat;lon;timestamp;P1;durP1;ratioP1;P2;durP2;ratioP2
11010;SDS011;5558;42.702;23.178;2023-11-21T00:02:19;12.23;;;8.13;;
11010;SDS011;5558;42.702;23.178;2023-11-21T00:04:47;9.93;;;7.73;;
11010;SDS011;5558;42.702;23.178;2023-11-21T00:07:15;12.30;;;7.57;;
11010;SDS011;5558;42.702;23.178;2023-11-21T00:09:42;10.67;;;7.57;;
11010;SDS011;5558;42.702;23.178;2023-11-21T00:12:08;9.80;;;7.37;;
11010;SDS011;5558;42.702;23.178;2023-11-21T00:14:35;11.77;;;7.50;;
11010;SDS011;5558;42.702;23.178;2023-11-21T00:17:02;10.50;;;8.60;;
11010;SDS011;5558;42.702;23.178;2023-11-21T00:19:29;13.03;;;8.83;;
11010;SDS011;5558;42.702;23.178;2023-11-21T00:21:55;12.77;;;9.17;;
11010;SDS011;5558;42.702;23.178;2023-11-21T00:24:24;11.87;;;8.60;;
11010;SDS011;5558;42.702;23.178;2023-11-21T00:26:51;11.90;;;8.80;;
11010;SDS011;5558;42.702;23.178;2023-11-21T00:29:18;11.70;;;9.23;;
11010;SDS011;5558;42.702;23.178;2023-11-21T00:31:44;11.47;;;8.33;;
11010;SDS011;5558;42.702;23.178;2023-11-21T00:34:11;12.07;;;8.57;;
11010;SDS011;5558;42.702;23.178;2023-11-21T00:36:39;12.33;;;8.93;;
11010;SDS011;5558;42.702;23.178;2023-11-21T00:39:06;12.57;;;7.80;;
11010;SDS011;5558;42.702;23.178;2023-11-21T00:41:35;10.97;;;8.40;;
11010;SDS011;5558;42.702;23.178;2023-11-21T00:44:02;13.90;;;10.43;;
11010;SDS011;5558;42.702;23.178;2023-11-21T00:46:29;12.67;;;9.43;;
11010;SDS011;5558;42.702;23.178;2023-11-21T00:48:56;15.00;;;11.03;;
11010;SDS011;5558;42.702;23.178;2023-11-21T00:51:22;14.67;;;10.30;;
11010;SDS011;5558;42.702;23.178;2023-11-21T00:53:49;12.03;;;9.10;;
11010;SDS011;5558;42.702;23.178;2023-11-21T00:56:16;13.47;;;10.50;;
11010;SDS011;5558;42.702;23.178;2023-11-21T00:58:44;16.67;;;11.53;;
11010;SDS011;5558;42.702;23.178;2023-11-21T01:01:14;17.67;;;11.80;;
11010;SDS011;5558;42.702;23.178;2023-11-21T01:03:41;15.50;;;11.67;;
11010;SDS011;5558;42.702;23.178;2023-11-21T01:06:08;16.20;;;11.77;;
11010;SDS011;5558;42.702;23.178;2023-11-21T01:08:35;16.23;;;10.83;;
11010;SDS011;5558;42.702;23.178;2023-11-21T01:11:02;17.30;;;11.77;;
11010;SDS011;5558;42.702;23.178;2023-11-21T01:13:29;10.47;;;8.20;;
11010;SDS011;5558;42.702;23.178;2023-11-21T01:15:57;16.10;;;9.57;;
11010;SDS011;5558;42.702;23.178;2023-11-21T01:18:24;6.37;;;5.37;;
11010;SDS011;5558;42.702;23.178;2023-11-21T01:20:51;10.87;;;5.77;;
11010;SDS011;5558;42.702;23.178;2023-11-21T01:23:19;6.33;;;5.33;;
11010;SDS011;5558;42.702;23.178;2023-11-21T01:25:45;7.20;;;5.47;;
11010;SDS011;5558;42.702;23.178;2023-11-21T01:28:13;7.63;;;5.07;;
11010;SDS011;5558;42.702;23.178;2023-11-21T01:30:40;8.87;;;6.27;;
11010;SDS011;5558;42.702;23.178;2023-11-21T01:33:08;9.50;;;7.03;;
11010;SDS011;5558;42.702;23.178;2023-11-21T01:35:34;11.30;;;7.93;;
11010;SDS011;5558;42.702;23.178;2023-11-21T01:38:01;10.87;;;7.60;;
11010;SDS011;5558;42.702;23.178;2023-11-21T01:40:29;7.80;;;6.00;;
11010;SDS011;5558;42.702;23.178;2023-11-21T01:42:55;10.93;;;7.53;;
11010;SDS011;5558;42.702;23.178;2023-11-21T01:45:22;12.57;;;8.00;;
11010;SDS011;5558;42.702;23.178;2023-11-21T01:47:50;14.23;;;8.50;;
11010;SDS011;5558;42.702;23.178;2023-11-21T01:50:18;12.93;;;9.60;;
11010;SDS011;5558;42.702;23.178;2023-11-21T01:52:45;10.23;;;7.87;;
11010;SDS011;5558;42.702;23.178;2023-11-21T01:55:13;10.73;;;7.27;;
11010;SDS011;5558;42.702;23.178;2023-11-21T01:57:43;10.17;;;7.30;;
11010;SDS011;5558;42.702;23.178;2023-11-21T02:00:10;10.90;;;6.80;;
11010;SDS011;5558;42.702;23.178;2023-11-21T02:02:42;7.10;;;5.43;;
11010;SDS011;5558;42.702;23.178;2023-11-21T02:05:09;6.60;;;4.73;;
11010;SDS011;5558;42.702;23.178;2023-11-21T02:07:39;14.57;;;10.03;;
11010;SDS011;5558;42.702;23.178;2023-11-21T02:10:06;10.80;;;5.80;;
11010;SDS011;5558;42.702;23.178;2023-11-21T02:12:33;8.90;;;6.47;;
11010;SDS011;5558;42.702;23.178;2023-11-21T02:15:00;10.50;;;7.70;;
11010;SDS011;5558;42.702;23.178;2023-11-21T02:17:28;13.33;;;8.60;;
11010;SDS011;5558;42.702;23.178;2023-11-21T02:19:55;11.10;;;7.80;;
11010;SDS011;5558;42.702;23.178;2023-11-21T02:22:21;13.77;;;7.70;;
11010;SDS011;5558;42.702;23.178;2023-11-21T02:24:52;11.67;;;6.80;;
11010;SDS011;5558;42.702;23.178;2023-11-21T02:27:19;10.73;;;7.47;;
11010;SDS011;5558;42.702;23.178;2023-11-21T02:29:48;12.97;;;9.27;;
11010;SDS011;5558;42.702;23.178;2023-11-21T02:32:15;13.23;;;9.73;;
11010;SDS011;5558;42.702;23.178;2023-11-21T02:34:44;13.83;;;8.40;;
11010;SDS011;5558;42.702;23.178;2023-11-21T02:37:10;12.37;;;8.77;;
11010;SDS011;5558;42.702;23.178;2023-11-21T02:39:37;11.47;;;8.07;;
11010;SDS011;5558;42.702;23.178;2023-11-21T02:42:05;12.03;;;7.93;;
11010;SDS011;5558;42.702;23.178;2023-11-21T02:44:32;13.17;;;8.83;;
11010;SDS011;5558;42.702;23.178;2023-11-21T02:46:59;14.20;;;10.50;;
11010;SDS011;5558;42.702;23.178;2023-11-21T02:49:26;14.27;;;10.27;;
11010;SDS011;5558;42.702;23.178;2023-11-21T02:51:53;17.03;;;10.93;;
11010;SDS011;5558;42.702;23.178;2023-11-21T02:54:20;20.50;;;12.83;;
11010;SDS011;5558;42.702;23.178;2023-11-21T02:56:48;21.70;;;13.93;;
11010;SDS011;5558;42.702;23.178;2023-11-21T02:59:16;16.97;;;12.67;;
11010;SDS011;5558;42.702;23.178;2023-11-21T03:01:44;16.43;;;11.00;;
11010;SDS011;5558;42.702;23.178;2023-11-21T03:04:11;19.20;;;11.57;;
11010;SDS011;5558;42.702;23.178;2023-11-21T03:06:42;15.40;;;10.80;;
11010;SDS011;5558;42.702;23.178;2023-11-21T03:09:09;15.00;;;9.53;;
11010;SDS011;5558;42.702;23.178;2023-11-21T03:11:37;13.90;;;9.10;;
11010;SDS011;5558;42.702;23.178;2023-11-21T03:14:03;12.90;;;8.87;;
11010;SDS011;5558;42.702;23.178;2023-11-21T03:16:32;14.30;;;8.70;;
11010;SDS011;5558;42.702;23.178;2023-11-21T03:18:58;13.93;;;7.80;;
11010;SDS011;5558;42.702;23.178;2023-11-21T03:21:25;13.03;;;8.07;;
11010;SDS011;5558;42.702;23.178;2023-11-21T03:23:52;13.03;;;8.30;;
11010;SDS011;5558;42.702;23.178;2023-11-21T03:26:19;11.17;;;7.80;;
11010;SDS011;5558;42.702;23.178;2023-11-21T03:28:45;14.93;;;8.10;;
11010;SDS011;5558;42.702;23.178;2023-11-21T03:31:12;16.87;;;10.03;;
11010;SDS011;5558;42.702;23.178;2023-11-21T03:33:40;18.63;;;8.93;;
11010;SDS011;5558;42.702;23.178;2023-11-21T03:36:07;14.30;;;8.13;;
11010;SDS011;5558;42.702;23.178;2023-11-21T03:38:34;12.37;;;7.87;;
11010;SDS011;5558;42.702;23.178;2023-11-21T03:41:02;13.60;;;6.20;;
11010;SDS011;5558;42.702;23.178;2023-11-21T03:43:28;10.13;;;5.97;;
11010;SDS011;5558;42.702;23.178;2023-11-21T03:45:55;10.83;;;5.77;;
11010;SDS011;5558;42.702;23.178;2023-11-21T03:48:22;9.73;;;5.13;;
11010;SDS011;5558;42.702;23.178;2023-11-21T03:50:50;7.70;;;4.87;;
11010;SDS011;5558;42.702;23.178;2023-11-21T03:53:17;9.03;;;5.10;;
11010;SDS011;5558;42.702;23.178;2023-11-21T03:55:43;9.13;;;5.10;;
11010;SDS011;5558;42.702;23.178;2023-11-21T03:58:10;7.13;;;4.60;;
11010;SDS011;5558;42.702;23.178;2023-11-21T04:00:37;9.70;;;4.87;;
11010;SDS011;5558;42.702;23.178;2023-11-21T04:03:04;8.17;;;4.93;;
11010;SDS011;5558;42.702;23.178;2023-11-21T04:05:31;8.87;;;4.87;;
11010;SDS011;5558;42.702;23.178;2023-11-21T04:07:59;6.80;;;4.40;;
11010;SDS011;5558;42.702;23.178;2023-11-21T04:10:26;7.97;;;5.03;;
11010;SDS011;5558;42.702;23.178;2023-11-21T04:12:52;7.70;;;5.10;;
11010;SDS011;5558;42.702;23.178;2023-11-21T04:15:19;8.77;;;5.10;;
11010;SDS011;5558;42.702;23.178;2023-11-21T04:17:46;7.83;;;4.93;;
11010;SDS011;5558;42.702;23.178;2023-11-21T04:20:12;8.40;;;4.97;;
11010;SDS011;5558;42.702;23.178;2023-11-21T04:22:39;9.77;;;4.97;;
11010;SDS011;5558;42.702;23.178;2023-11-21T04:25:10;15.10;;;8.73;;
11010;SDS011;5558;42.702;23.178;2023-11-21T04:27:38;14.23;;;8.17;;
11010;SDS011;5558;42.702;23.178;2023-11-21T04:30:05;12.00;;;7.47;;
11010;SDS011;5558;42.702;23.178;2023-11-21T04:32:34;11.50;;;7.53;;
11010;SDS011;5558;42.702;23.178;2023-11-21T04:35:01;12.47;;;7.70;;
11010;SDS011;5558;42.702;23.178;2023-11-21T04:37:29;20.43;;;9.90;;
11010;SDS011;5558;42.702;23.178;2023-11-21T04:39:56;14.00;;;9.80;;
11010;SDS011;5558;42.702;23.178;2023-11-21T04:42:24;14.13;;;8.87;;
11010;SDS011;5558;42.702;23.178;2023-11-21T04:44:50;26.03;;;23.63;;
11010;SDS011;5558;42.702;23.178;2023-11-21T04:47:17;13.73;;;9.23;;
11010;SDS011;5558;42.702;23.178;2023-11-21T04:49:45;14.57;;;9.63;;
11010;SDS011;5558;42.702;23.178;2023-11-21T04:52:13;14.57;;;9.37;;
11010;SDS011;5558;42.702;23.178;2023-11-21T04:54:40;13.60;;;9.97;;
11010;SDS011;5558;42.702;23.178;2023-11-21T04:57:06;14.23;;;9.70;;
11010;SDS011;5558;42.702;23.178;2023-11-21T04:59:34;16.67;;;11.57;;
11010;SDS011;5558;42.702;23.178;2023-11-21T05:02:01;55.00;;;45.70;;
11010;SDS011;5558;42.702;23.178;2023-11-21T05:04:28;12.80;;;8.30;;
11010;SDS011;5558;42.702;23.178;2023-11-21T05:06:55;12.43;;;9.33;;
11010;SDS011;5558;42.702;23.178;2023-11-21T05:09:21;11.97;;;8.23;;
11010;SDS011;5558;42.702;23.178;2023-11-21T05:11:48;16.57;;;10.27;;
11010;SDS011;5558;42.702;23.178;2023-11-21T05:14:15;14.27;;;9.93;;
11010;SDS011;5558;42.702;23.178;2023-11-21T05:16:45;15.10;;;11.50;;
11010;SDS011;5558;42.702;23.178;2023-11-21T05:19:12;14.30;;;10.60;;
11010;SDS011;5558;42.702;23.178;2023-11-21T05:21:39;18.10;;;11.87;;
11010;SDS011;5558;42.702;23.178;2023-11-21T05:24:06;13.10;;;10.37;;
11010;SDS011;5558;42.702;23.178;2023-11-21T05:26:33;12.73;;;8.43;;
11010;SDS011;5558;42.702;23.178;2023-11-21T05:28:59;13.47;;;8.80;;
11010;SDS011;5558;42.702;23.178;2023-11-21T05:31:26;11.70;;;7.83;;
11010;SDS011;5558;42.702;23.178;2023-11-21T05:33:54;24.03;;;11.03;;
11010;SDS011;5558;42.702;23.178;2023-11-21T05:36:22;181.00;;;47.57;;
11010;SDS011;5558;42.702;23.178;2023-11-21T05:38:48;50.73;;;20.50;;
11010;SDS011;5558;42.702;23.178;2023-11-21T05:41:15;30.87;;;13.63;;
11010;SDS011;5558;42.702;23.178;2023-11-21T05:43:42;30.13;;;13.67;;
11010;SDS011;5558;42.702;23.178;2023-11-21T05:46:09;80.63;;;26.73;;
11010;SDS011;5558;42.702;23.178;2023-11-21T05:48:36;116.57;;;37.77;;
11010;SDS011;5558;42.702;23.178;2023-11-21T05:51:05;115.23;;;38.70;;
11010;SDS011;5558;42.702;23.178;2023-11-21T05:53:33;71.50;;;28.63;;
11010;SDS011;5558;42.702;23.178;2023-11-21T05:56:00;77.13;;;29.90;;
11010;SDS011;5558;42.702;23.178;2023-11-21T05:58:27;23.50;;;11.80;;
11010;SDS011;5558;42.702;23.178;2023-11-21T06:00:53;17.20;;;10.83;;
11010;SDS011;5558;42.702;23.178;2023-11-21T06:03:20;16.63;;;10.13;;
11010;SDS011;5558;42.702;23.178;2023-11-21T06:05:48;44.87;;;21.87;;
11010;SDS011;5558;42.702;23.178;2023-11-21T06:08:16;79.03;;;33.40;;
11010;SDS011;5558;42.702;23.178;2023-11-21T06:10:43;27.80;;;15.23;;
11010;SDS011;5558;42.702;23.178;2023-11-21T06:13:14;20.37;;;12.47;;
11010;SDS011;5558;42.702;23.178;2023-11-21T06:15:41;16.07;;;10.13;;
11010;SDS011;5558;42.702;23.178;2023-11-21T06:18:08;22.40;;;12.23;;
11010;SDS011;5558;42.702;23.178;2023-11-21T06:20:36;27.73;;;14.90;;
11010;SDS011;5558;42.702;23.178;2023-11-21T06:23:03;23.97;;;12.87;;
11010;SDS011;5558;42.702;23.178;2023-11-21T06:25:32;24.30;;;13.53;;
11010;SDS011;5558;42.702;23.178;2023-11-21T06:28:01;21.27;;;13.90;;
11010;SDS011;5558;42.702;23.178;2023-11-21T06:30:28;28.10;;;15.50;;
11010;SDS011;5558;42.702;23.178;2023-11-21T06:32:55;29.07;;;15.87;;
11010;SDS011;5558;42.702;23.178;2023-11-21T06:35:22;25.63;;;14.60;;
11010;SDS011;5558;42.702;23.178;2023-11-21T06:37:48;23.13;;;15.00;;
11010;SDS011;5558;42.702;23.178;2023-11-21T06:40:16;21.57;;;11.93;;
11010;SDS011;5558;42.702;23.178;2023-11-21T06:42:44;19.07;;;12.27;;
11010;SDS011;5558;42.702;23.178;2023-11-21T06:45:12;16.83;;;10.93;;
11010;SDS011;5558;42.702;23.178;2023-11-21T06:47:40;15.33;;;10.43;;
11010;SDS011;5558;42.702;23.178;2023-11-21T06:50:07;15.17;;;10.57;;
11010;SDS011;5558;42.702;23.178;2023-11-21T06:52:34;13.67;;;10.07;;
11010;SDS011;5558;42.702;23.178;2023-11-21T06:55:01;32.63;;;19.67;;
11010;SDS011;5558;42.702;23.178;2023-11-21T06:57:29;65.70;;;42.93;;
11010;SDS011;5558;42.702;23.178;2023-11-21T06:59:58;44.30;;;29.23;;
11010;SDS011;5558;42.702;23.178;2023-11-21T07:02:26;28.43;;;18.73;;
11010;SDS011;5558;42.702;23.178;2023-11-21T07:04:53;14.60;;;11.43;;
11010;SDS011;5558;42.702;23.178;2023-11-21T07:07:19;23.30;;;14.60;;
11010;SDS011;5558;42.702;23.178;2023-11-21T07:09:46;20.57;;;14.93;;
11010;SDS011;5558;42.702;23.178;2023-11-21T07:12:14;25.93;;;18.83;;
11010;SDS011;5558;42.702;23.178;2023-11-21T07:14:40;29.80;;;20.87;;
11010;SDS011;5558;42.702;23.178;2023-11-21T07:17:11;37.67;;;25.77;;
11010;SDS011;5558;42.702;23.178;2023-11-21T07:19:38;27.43;;;21.47;;
11010;SDS011;5558;42.702;23.178;2023-11-21T07:22:06;26.60;;;18.67;;
11010;SDS011;5558;42.702;23.178;2023-11-21T07:24:33;26.27;;;19.00;;
11010;SDS011;5558;42.702;23.178;2023-11-21T07:27:00;21.87;;;16.30;;
11010;SDS011;5558;42.702;23.178;2023-11-21T07:29:27;20.33;;;14.43;;
11010;SDS011;5558;42.702;23.178;2023-11-21T07:31:54;22.23;;;15.00;;
11010;SDS011;5558;42.702;23.178;2023-11-21T07:34:23;23.27;;;16.67;;
11010;SDS011;5558;42.702;23.178;2023-11-21T07:36:49;23.40;;;16.20;;
11010;SDS011;5558;42.702;23.178;2023-11-21T07:39:16;23.77;;;16.27;;
11010;SDS011;5558;42.702;23.178;2023-11-21T07:41:43;25.27;;;17.10;;
11010;SDS011;5558;42.702;23.178;2023-11-21T07:44:13;32.47;;;21.90;;
11010;SDS011;5558;42.702;23.178;2023-11-21T07:46:41;25.67;;;19.27;;
11010;SDS011;5558;42.702;23.178;2023-11-21T07:49:09;28.07;;;19.17;;
11010;SDS011;5558;42.702;23.178;2023-11-21T07:51:37;29.17;;;19.73;;
11010;SDS011;5558;42.702;23.178;2023-11-21T07:54:04;32.50;;;22.07;;
11010;SDS011;5558;42.702;23.178;2023-11-21T07:56:31;30.60;;;21.27;;
11010;SDS011;5558;42.702;23.178;2023-11-21T07:58:58;38.87;;;25.77;;
11010;SDS011;5558;42.702;23.178;2023-11-21T08:01:25;34.40;;;23.97;;
11010;SDS011;5558;42.702;23.178;2023-11-21T08:03:53;33.60;;;23.00;;
11010;SDS011;5558;42.702;23.178;2023-11-21T08:06:22;37.00;;;23.60;;
11010;SDS011;5558;42.702;23.178;2023-11-21T08:08:50;40.33;;;26.67;;
11010;SDS011;5558;42.702;23.178;2023-11-21T08:11:17;27.87;;;20.60;;
11010;SDS011;5558;42.702;23.178;2023-11-21T08:13:44;24.30;;;17.30;;
11010;SDS011;5558;42.702;23.178;2023-11-21T08:16:12;26.97;;;18.63;;
11010;SDS011;5558;42.702;23.178;2023-11-21T08:18:38;22.30;;;16.37;;
11010;SDS011;5558;42.702;23.178;2023-11-21T08:21:06;21.63;;;16.57;;
11010;SDS011;5558;42.702;23.178;2023-11-21T08:23:33;21.97;;;15.60;;
11010;SDS011;5558;42.702;23.178;2023-11-21T08:26:01;21.07;;;15.63;;
11010;SDS011;5558;42.702;23.178;2023-11-21T08:28:28;17.27;;;12.83;;
11010;SDS011;5558;42.702;23.178;2023-11-21T08:30:55;20.00;;;14.60;;
11010;SDS011;5558;42.702;23.178;2023-11-21T08:33:22;15.23;;;12.93;;
11010;SDS011;5558;42.702;23.178;2023-11-21T08:35:48;18.10;;;13.33;;
11010;SDS011;5558;42.702;23.178;2023-11-21T08:38:15;20.40;;;15.07;;
11010;SDS011;5558;42.702;23.178;2023-11-21T08:40:42;19.97;;;16.13;;
11010;SDS011;5558;42.702;23.178;2023-11-21T08:43:11;21.07;;;15.97;;
11010;SDS011;5558;42.702;23.178;2023-11-21T08:45:39;19.70;;;14.93;;
11010;SDS011;5558;42.702;23.178;2023-11-21T08:48:06;17.87;;;14.40;;
11010;SDS011;5558;42.702;23.178;2023-11-21T08:50:33;18.60;;;13.80;;
11010;SDS011;5558;42.702;23.178;2023-11-21T08:53:00;17.50;;;13.47;;
11010;SDS011;5558;42.702;23.178;2023-11-21T08:55:27;16.77;;;13.47;;
11010;SDS011;5558;42.702;23.178;2023-11-21T08:57:53;17.90;;;14.17;;
11010;SDS011;5558;42.702;23.178;2023-11-21T09:00:21;18.37;;;13.37;;
11010;SDS011;5558;42.702;23.178;2023-11-21T09:02:48;16.33;;;11.63;;
11010;SDS011;5558;42.702;23.178;2023-11-21T09:05:15;15.27;;;11.43;;
11010;SDS011;5558;42.702;23.178;2023-11-21T09:07:42;14.50;;;12.20;;
11010;SDS011;5558;42.702;23.178;2023-11-21T09:10:11;14.10;;;9.63;;
11010;SDS011;5558;42.702;23.178;2023-11-21T09:12:38;14.20;;;10.53;;
11010;SDS011;5558;42.702;23.178;2023-11-21T09:15:05;14.97;;;11.03;;
11010;SDS011;5558;42.702;23.178;2023-11-21T09:17:36;13.27;;;10.43;;
11010;SDS011;5558;42.702;23.178;2023-11-21T09:20:04;11.83;;;10.30;;
11010;SDS011;5558;42.702;23.178;2023-11-21T09:22:33;12.67;;;9.77;;
11010;SDS011;5558;42.702;23.178;2023-11-21T09:25:00;11.23;;;8.63;;
11010;SDS011;5558;42.702;23.178;2023-11-21T09:27:30;10.57;;;9.20;;
11010;SDS011;5558;42.702;23.178;2023-11-21T09:29:56;11.57;;;9.40;;
11010;SDS011;5558;42.702;23.178;2023-11-21T09:32:23;12.10;;;9.70;;
11010;SDS011;5558;42.702;23.178;2023-11-21T09:34:51;11.63;;;8.83;;
11010;SDS011;5558;42.702;23.178;2023-11-21T09:37:20;13.30;;;9.90;;
11010;SDS011;5558;42.702;23.178;2023-11-21T09:39:47;11.77;;;9.13;;
11010;SDS011;5558;42.702;23.178;2023-11-21T09:42:15;11.73;;;9.80;;
11010;SDS011;5558;42.702;23.178;2023-11-21T09:44:48;10.87;;;9.33;;
11010;SDS011;5558;42.702;23.178;2023-11-21T09:47:21;12.47;;;9.00;;
11010;SDS011;5558;42.702;23.178;2023-11-21T09:49:49;11.80;;;9.37;;
11010;SDS011;5558;42.702;23.178;2023-11-21T09:52:18;11.53;;;9.33;;
11010;SDS011;5558;42.702;23.178;2023-11-21T09:54:50;15.77;;;12.23;;
11010;SDS011;5558;42.702;23.178;2023-11-21T09:57:19;15.53;;;12.80;;
11010;SDS011;5558;42.702;23.178;2023-11-21T09:59:48;17.17;;;13.97;;
11010;SDS011;5558;42.702;23.178;2023-11-21T10:02:20;16.90;;;14.07;;
11010;SDS011;5558;42.702;23.178;2023-11-21T10:04:51;18.80;;;15.43;;
11010;SDS011;5558;42.702;23.178;2023-11-21T10:07:19;24.00;;;17.83;;
11010;SDS011;5558;42.702;23.178;2023-11-21T10:09:47;25.67;;;17.50;;
11010;SDS011;5558;42.702;23.178;2023-11-21T10:12:14;24.67;;;18.47;;
11010;SDS011;5558;42.702;23.178;2023-11-21T10:14:42;26.60;;;21.90;;
11010;SDS011;5558;42.702;23.178;2023-11-21T10:17:12;26.83;;;19.77;;
11010;SDS011;5558;42.702;23.178;2023-11-21T10:19:41;27.30;;;20.00;;
11010;SDS011;5558;42.702;23.178;2023-11-21T10:22:10;25.47;;;20.87;;
11010;SDS011;5558;42.702;23.178;2023-11-21T10:24:38;25.40;;;18.97;;
11010;SDS011;5558;42.702;23.178;2023-11-21T10:27:05;24.47;;;20.17;;
11010;SDS011;5558;42.702;23.178;2023-11-21T10:29:33;26.57;;;19.80;;
11010;SDS011;5558;42.702;23.178;2023-11-21T10:32:01;25.13;;;18.50;;
11010;SDS011;5558;42.702;23.178;2023-11-21T10:34:29;24.53;;;18.83;;
11010;SDS011;5558;42.702;23.178;2023-11-21T10:36:55;23.43;;;18.57;;
11010;SDS011;5558;42.702;23.178;2023-11-21T10:39:23;22.60;;;18.53;;
11010;SDS011;5558;42.702;23.178;2023-11-21T10:41:54;24.10;;;19.20;;
11010;SDS011;5558;42.702;23.178;2023-11-21T10:44:21;24.33;;;18.33;;
11010;SDS011;5558;42.702;23.178;2023-11-21T10:46:49;22.90;;;18.17;;
11010;SDS011;5558;42.702;23.178;2023-11-21T10:49:17;22.53;;;18.80;;
11010;SDS011;5558;42.702;23.178;2023-11-21T10:51:44;22.43;;;17.53;;
11010;SDS011;5558;42.702;23.178;2023-11-21T10:54:16;23.87;;;19.30;;
11010;SDS011;5558;42.702;23.178;2023-11-21T10:56:43;22.07;;;19.77;;
11010;SDS011;5558;42.702;23.178;2023-11-21T10:59:13;24.20;;;19.53;;
11010;SDS011;5558;42.702;23.178;2023-11-21T11:01:41;23.80;;;19.90;;
11010;SDS011;5558;42.702;23.178;2023-11-21T11:04:11;24.50;;;20.57;;
11010;SDS011;5558;42.702;23.178;2023-11-21T11:06:41;23.77;;;19.57;;
11010;SDS011;5558;42.702;23.178;2023-11-21T11:09:09;25.60;;;19.90;;
11010;SDS011;5558;42.702;23.178;2023-11-21T11:11:38;24.27;;;20.73;;
11010;SDS011;5558;42.702;23.178;2023-11-21T11:14:06;29.43;;;23.87;;
11010;SDS011;5558;42.702;23.178;2023-11-21T11:16:38;28.23;;;22.03;;
11010;SDS011;5558;42.702;23.178;2023-11-21T11:19:06;25.87;;;21.60;;
11010;SDS011;5558;42.702;23.178;2023-11-21T11:21:36;25.57;;;21.00;;
11010;SDS011;5558;42.702;23.178;2023-11-21T11:24:17;23.73;;;19.70;;
11010;SDS011;5558;42.702;23.178;2023-11-21T11:26:56;23.73;;;19.13;;
11010;SDS011;5558;42.702;23.178;2023-11-21T11:29:30;24.17;;;19.00;;
11010;SDS011;5558;42.702;23.178;2023-11-21T11:32:10;24.40;;;18.90;;
11010;SDS011;5558;42.702;23.178;2023-11-21T11:34:47;23.00;;;18.77;;
11010;SDS011;5558;42.702;23.178;2023-11-21T11:37:20;22.43;;;18.30;;
11010;SDS011;5558;42.702;23.178;2023-11-21T11:39:48;27.27;;;20.10;;
11010;SDS011;5558;42.702;23.178;2023-11-21T11:42:16;23.03;;;19.03;;
11010;SDS011;5558;42.702;23.178;2023-11-21T11:44:51;24.50;;;20.83;;
11010;SDS011;5558;42.702;23.178;2023-11-21T11:47:21;25.60;;;21.10;;
11010;SDS011;5558;42.702;23.178;2023-11-21T11:50:00;30.27;;;23.33;;
11010;SDS011;5558;42.702;23.178;2023-11-21T11:52:39;28.23;;;21.60;;
11010;SDS011;5558;42.702;23.178;2023-11-21T11:55:08;28.17;;;21.17;;
11010;SDS011;5558;42.702;23.178;2023-11-21T11:57:39;26.50;;;21.60;;
11010;SDS011;5558;42.702;23.178;2023-11-21T12:00:14;28.43;;;20.33;;
11010;SDS011;5558;42.702;23.178;2023-11-21T12:02:45;22.77;;;16.80;;
11010;SDS011;5558;42.702;23.178;2023-11-21T12:05:14;23.47;;;18.80;;
11010;SDS011;5558;42.702;23.178;2023-11-21T12:07:45;23.07;;;17.37;;
11010;SDS011;5558;42.702;23.178;2023-11-21T12:10:14;19.07;;;14.73;;
11010;SDS011;5558;42.702;23.178;2023-11-21T12:12:43;21.20;;;15.70;;
11010;SDS011;5558;42.702;23.178;2023-11-21T12:15:11;21.27;;;16.30;;
11010;SDS011;5558;42.702;23.178;2023-11-21T12:17:39;20.33;;;15.70;;
11010;SDS011;5558;42.702;23.178;2023-11-21T12:20:10;18.73;;;14.00;;
11010;SDS011;5558;42.702;23.178;2023-11-21T12:22:42;15.87;;;12.93;;
11010;SDS011;5558;42.702;23.178;2023-11-21T12:25:09;17.97;;;14.50;;
11010;SDS011;5558;42.702;23.178;2023-11-21T12:27:41;16.60;;;13.13;;
11010;SDS011;5558;42.702;23.178;2023-11-21T12:30:09;25.50;;;22.47;;
11010;SDS011;5558;42.702;23.178;2023-11-21T12:32:38;15.23;;;12.40;;
11010;SDS011;5558;42.702;23.178;2023-11-21T12:35:06;14.43;;;12.20;;
11010;SDS011;5558;42.702;23.178;2023-11-21T12:37:36;15.67;;;12.53;;
11010;SDS011;5558;42.702;23.178;2023-11-21T12:40:04;15.70;;;12.33;;
11010;SDS011;5558;42.702;23.178;2023-11-21T12:42:33;15.07;;;12.07;;
11010;SDS011;5558;42.702;23.178;2023-11-21T12:45:07;14.10;;;11.73;;
11010;SDS011;5558;42.702;23.178;2023-11-21T12:47:39;15.77;;;12.10;;
11010;SDS011;5558;42.702;23.178;2023-11-21T12:50:07;17.37;;;12.60;;
11010;SDS011;5558;42.702;23.178;2023-11-21T12:52:40;15.70;;;12.57;;
11010;SDS011;5558;42.702;23.178;2023-11-21T12:55:09;12.57;;;10.90;;
11010;SDS011;5558;42.702;23.178;2023-11-21T12:57:40;16.07;;;11.70;;
11010;SDS011;5558;42.702;23.178;2023-11-21T13:00:09;15.73;;;13.07;;
11010;SDS011;5558;42.702;23.178;2023-11-21T13:02:50;21.23;;;16.03;;
11010;SDS011;5558;42.702;23.178;2023-11-21T13:05:23;21.93;;;15.97;;
11010;SDS011;5558;42.702;23.178;2023-11-21T13:07:54;19.70;;;15.53;;
11010;SDS011;5558;42.702;23.178;2023-11-21T13:10:23;20.47;;;16.47;;
11010;SDS011;5558;42.702;23.178;2023-11-21T13:12:54;19.93;;;14.27;;
11010;SDS011;5558;42.702;23.178;2023-11-21T13:15:23;19.67;;;15.57;;
11010;SDS011;5558;42.702;23.178;2023-11-21T13:17:50;18.50;;;14.10;;
11010;SDS011;5558;42.702;23.178;2023-11-21T13:20:18;13.70;;;10.87;;
11010;SDS011;5558;42.702;23.178;2023-11-21T13:22:48;13.00;;;10.20;;
11010;SDS011;5558;42.702;23.178;2023-11-21T13:25:20;14.17;;;11.33;;
11010;SDS011;5558;42.702;23.178;2023-11-21T13:27:47;13.03;;;10.50;;
11010;SDS011;5558;42.702;23.178;2023-11-21T13:30:14;14.93;;;11.70;;
11010;SDS011;5558;42.702;23.178;2023-11-21T13:32:42;16.57;;;12.77;;
11010;SDS011;5558;42.702;23.178;2023-11-21T13:35:11;16.03;;;13.03;;
11010;SDS011;5558;42.702;23.178;2023-11-21T13:37:46;16.57;;;12.90;;
11010;SDS011;5558;42.702;23.178;2023-11-21T13:40:16;16.43;;;12.90;;
11010;SDS011;5558;42.702;23.178;2023-11-21T13:42:51;16.97;;;13.10;;
11010;SDS011;5558;42.702;23.178;2023-11-21T13:45:20;14.53;;;11.83;;
11010;SDS011;5558;42.702;23.178;2023-11-21T13:47:49;18.30;;;14.00;;
11010;SDS011;5558;42.702;23.178;2023-11-21T13:50:18;18.70;;;14.40;;
11010;SDS011;5558;42.702;23.178;2023-11-21T13:52:48;17.57;;;13.70;;
11010;SDS011;5558;42.702;23.178;2023-11-21T13:55:16;18.90;;;16.30;;
11010;SDS011;5558;42.702;23.178;2023-11-21T13:57:44;17.87;;;15.67;;
11010;SDS011;5558;42.702;23.178;2023-11-21T14:00:14;18.30;;;14.63;;
11010;SDS011;5558;42.702;23.178;2023-11-21T14:03:04;17.30;;;14.00;;
11010;SDS011;5558;42.702;23.178;2023-11-21T14:05:40;15.47;;;13.07;;
11010;SDS011;5558;42.702;23.178;2023-11-21T14:08:08;19.50;;;15.00;;
11010;SDS011;5558;42.702;23.178;2023-11-21T14:10:37;16.80;;;14.30;;
11010;SDS011;5558;42.702;23.178;2023-11-21T14:13:10;18.43;;;15.13;;
11010;SDS011;5558;42.702;23.178;2023-11-21T14:15:38;18.03;;;14.83;;
11010;SDS011;5558;42.702;23.178;2023-11-21T14:18:08;19.93;;;15.60;;
11010;SDS011;5558;42.702;23.178;2023-11-21T14:20:36;39.37;;;21.77;;
11010;SDS011;5558;42.702;23.178;2023-11-21T14:23:03;23.03;;;15.20;;
11010;SDS011;5558;42.702;23.178;2023-11-21T14:25:31;15.27;;;12.50;;
11010;SDS011;5558;42.702;23.178;2023-11-21T14:27:58;16.33;;;13.03;;
11010;SDS011;5558;42.702;23.178;2023-11-21T14:30:26;19.33;;;14.53;;
11010;SDS011;5558;42.702;23.178;2023-11-21T14:32:55;19.33;;;14.17;;